Terminal Aerodrome Forecast
Issued by NWS

Home | Current Version | Previous Version | Text Only | Print | Product List | Glossary On
Versions: 1 2 3 4 5 6 7 8 9 10 11 12
000
FTUS43 KSGF 221100
TAFJLN
TAF
KJLN 221120Z 2212/2312 20005KT P6SM SCT250
     FM221600 20009KT P6SM FEW050 SCT250
     FM230600 22004KT P6SM OVC250 PROB30 2307/2311 3SM TSRA
      BKN050CB=

USA.gov is the U.S. government's official web portal to all federal, state and local government web resources and services.